This is the latest recevied weather packets stored in our database for station/object K1BES. If no packets are shown the sender has not sent any weather packets the latest 10 day(s).
| Time | Temp. | Humidity | Pressure | Rain* | Wind** | Luminosity | Snow |
|---|---|---|---|---|---|---|---|
| 1777235621 | 27.22° C | 78% | 1013.7 hPa | 0 mm | - | 99 W/m² | - |
| 1777235319 | 27.22° C | 80% | 1013.6 hPa | 0 mm | - | 166 W/m² | - |
| 1777235015 | 27.78° C | 77% | 1013.9 hPa | 0 mm | - | 148 W/m² | - |
| 1777234711 | 27.78° C | 76% | 1013.9 hPa | 0 mm | - | 119 W/m² | - |
| 1777234407 | 27.78° C | 76% | 1013.9 hPa | 0 mm | - | 113 W/m² | - |
| 1777234102 | 27.78° C | 77% | 1014 hPa | 0 mm | - | 389 W/m² | - |
| 1777233799 | 27.78° C | 76% | 1014.1 hPa | 0 mm | - | 479 W/m² | - |
| 1777233495 | 27.78° C | 76% | 1014 hPa | 0 mm | - | 771 W/m² | - |
| 1777233195 | 28.33° C | 75% | 1014.2 hPa | 0 mm | - | 819 W/m² | - |
| 1777232895 | 27.78° C | 76% | 1014.1 hPa | 0 mm | - | 800 W/m² | - |
| 1777232594 | 27.78° C | 76% | 1014.3 hPa | 0 mm | - | 789 W/m² | - |
| 1777232292 | 28.33° C | 75% | 1014.3 hPa | 0 mm | - | 845 W/m² | - |
| 1777231988 | 27.78° C | 76% | 1014.2 hPa | 0 mm | - | 857 W/m² | - |
| 1777231685 | 27.78° C | 76% | 1014.2 hPa | 0 mm | - | 876 W/m² | - |
| 1777231382 | 27.78° C | 76% | 1014.1 hPa | 0 mm | - | 526 W/m² | - |
| 1777231077 | 28.89° C | 73% | 1014.4 hPa | 0 mm | - | 927 W/m² | - |
| 1777230774 | 28.89° C | 73% | 1014.3 hPa | 0 mm | - | 963 W/m² | - |
| 1777230468 | 28.33° C | 74% | 1014.2 hPa | 0 mm | - | 946 W/m² | - |
| 1777230165 | 28.33° C | 74% | 1014.3 hPa | 0 mm | - | 948 W/m² | - |
| 1777229862 | 28.33° C | 74% | 1014.4 hPa | 0 mm | - | 969 W/m² | - |
| 1777229558 | 28.33° C | 76% | 1014.3 hPa | 0 mm | - | 993 W/m² | - |
| 1777229256 | 27.78° C | 76% | 1014.6 hPa | 0 mm | - | 857 W/m² | - |
| 1777228953 | 28.33° C | 74% | 1014.4 hPa | 0 mm | - | 1008 W/m² | - |
| 1777228648 | 28.33° C | 75% | 1014.6 hPa | 0 mm | - | 996 W/m² | - |
| 1777228344 | 28.33° C | 75% | 1014.7 hPa | 0 mm | - | 1004 W/m² | - |
* Rain latest hour (hover to see other rain measurements)
** Current wind speed in m/s (hover to see current wind gust speed)